sensor_id;sensor_type;location;lat;lon;timestamp;temperature;humidity
9820;DHT22;4949;48.482;9.206;2023-07-20T00:01:39;21.90;55.00
9820;DHT22;4949;48.482;9.206;2023-07-20T00:06:41;21.90;55.10
9820;DHT22;4949;48.482;9.206;2023-07-20T00:11:49;21.80;55.10
9820;DHT22;4949;48.482;9.206;2023-07-20T00:16:51;21.70;55.30
9820;DHT22;4949;48.482;9.206;2023-07-20T00:22:00;21.70;55.00
9820;DHT22;4949;48.482;9.206;2023-07-20T00:27:03;21.60;55.60
9820;DHT22;4949;48.482;9.206;2023-07-20T00:32:04;21.50;55.40
9820;DHT22;4949;48.482;9.206;2023-07-20T00:37:05;21.30;55.80
9820;DHT22;4949;48.482;9.206;2023-07-20T00:42:07;21.40;56.20
9820;DHT22;4949;48.482;9.206;2023-07-20T00:47:10;21.40;56.10
9820;DHT22;4949;48.482;9.206;2023-07-20T00:52:14;21.40;56.00
9820;DHT22;4949;48.482;9.206;2023-07-20T00:57:15;21.40;55.80
9820;DHT22;4949;48.482;9.206;2023-07-20T01:02:16;21.30;55.40
9820;DHT22;4949;48.482;9.206;2023-07-20T01:12:43;21.10;55.10
9820;DHT22;4949;48.482;9.206;2023-07-20T01:17:47;21.10;55.00
9820;DHT22;4949;48.482;9.206;2023-07-20T01:28:13;21.10;54.90
9820;DHT22;4949;48.482;9.206;2023-07-20T01:33:26;21.10;55.30
9820;DHT22;4949;48.482;9.206;2023-07-20T01:38:28;21.00;55.50
9820;DHT22;4949;48.482;9.206;2023-07-20T01:43:31;21.00;55.60
9820;DHT22;4949;48.482;9.206;2023-07-20T01:48:34;21.00;56.00
9820;DHT22;4949;48.482;9.206;2023-07-20T01:53:35;21.00;56.00
9820;DHT22;4949;48.482;9.206;2023-07-20T01:58:35;20.90;55.90
9820;DHT22;4949;48.482;9.206;2023-07-20T02:03:36;20.80;55.10
9820;DHT22;4949;48.482;9.206;2023-07-20T02:08:39;20.80;55.30
9820;DHT22;4949;48.482;9.206;2023-07-20T02:13:40;20.70;55.10
9820;DHT22;4949;48.482;9.206;2023-07-20T02:18:40;20.70;55.00
9820;DHT22;4949;48.482;9.206;2023-07-20T02:23:41;20.60;54.50
9820;DHT22;4949;48.482;9.206;2023-07-20T02:28:42;20.70;55.00
9820;DHT22;4949;48.482;9.206;2023-07-20T02:33:45;20.70;55.10
9820;DHT22;4949;48.482;9.206;2023-07-20T02:38:46;20.60;55.50
9820;DHT22;4949;48.482;9.206;2023-07-20T02:43:47;20.50;55.70
9820;DHT22;4949;48.482;9.206;2023-07-20T02:48:48;20.40;56.50
9820;DHT22;4949;48.482;9.206;2023-07-20T02:53:48;20.40;56.40
9820;DHT22;4949;48.482;9.206;2023-07-20T02:58:49;20.20;56.70
9820;DHT22;4949;48.482;9.206;2023-07-20T03:03:50;20.10;57.10
9820;DHT22;4949;48.482;9.206;2023-07-20T03:08:50;20.10;57.20
9820;DHT22;4949;48.482;9.206;2023-07-20T03:13:56;19.90;57.10
9820;DHT22;4949;48.482;9.206;2023-07-20T03:18:56;19.90;57.60
9820;DHT22;4949;48.482;9.206;2023-07-20T03:23:57;19.80;57.90
9820;DHT22;4949;48.482;9.206;2023-07-20T03:28:58;19.90;57.70
9820;DHT22;4949;48.482;9.206;2023-07-20T03:33:58;19.80;57.90
9820;DHT22;4949;48.482;9.206;2023-07-20T03:38:59;19.70;58.20
9820;DHT22;4949;48.482;9.206;2023-07-20T03:44:00;19.60;58.10
9820;DHT22;4949;48.482;9.206;2023-07-20T03:49:01;19.60;58.20
9820;DHT22;4949;48.482;9.206;2023-07-20T03:54:02;19.50;58.10
9820;DHT22;4949;48.482;9.206;2023-07-20T03:59:03;19.50;58.50
9820;DHT22;4949;48.482;9.206;2023-07-20T04:04:07;19.50;58.50
9820;DHT22;4949;48.482;9.206;2023-07-20T04:09:08;19.40;58.80
9820;DHT22;4949;48.482;9.206;2023-07-20T04:14:09;19.40;58.80
9820;DHT22;4949;48.482;9.206;2023-07-20T04:19:10;19.30;58.80
9820;DHT22;4949;48.482;9.206;2023-07-20T04:24:13;19.30;59.00
9820;DHT22;4949;48.482;9.206;2023-07-20T04:29:16;19.30;59.20
9820;DHT22;4949;48.482;9.206;2023-07-20T04:34:17;19.20;59.30
9820;DHT22;4949;48.482;9.206;2023-07-20T04:39:18;19.20;59.30
9820;DHT22;4949;48.482;9.206;2023-07-20T04:44:19;19.20;59.60
9820;DHT22;4949;48.482;9.206;2023-07-20T04:49:19;19.20;59.80
9820;DHT22;4949;48.482;9.206;2023-07-20T04:54:25;19.20;61.10
9820;DHT22;4949;48.482;9.206;2023-07-20T04:59:28;19.20;60.00
9820;DHT22;4949;48.482;9.206;2023-07-20T05:04:31;19.20;60.60
9820;DHT22;4949;48.482;9.206;2023-07-20T05:09:34;19.30;59.80
9820;DHT22;4949;48.482;9.206;2023-07-20T05:14:35;19.40;60.20
9820;DHT22;4949;48.482;9.206;2023-07-20T05:19:35;19.60;59.50
9820;DHT22;4949;48.482;9.206;2023-07-20T05:24:38;19.70;59.00
9820;DHT22;4949;48.482;9.206;2023-07-20T05:29:44;19.50;59.40
9820;DHT22;4949;48.482;9.206;2023-07-20T05:34:46;19.60;59.60
9820;DHT22;4949;48.482;9.206;2023-07-20T05:39:46;19.60;59.60
9820;DHT22;4949;48.482;9.206;2023-07-20T05:44:50;19.70;59.80
9820;DHT22;4949;48.482;9.206;2023-07-20T05:49:53;19.70;58.70
9820;DHT22;4949;48.482;9.206;2023-07-20T05:54:56;19.70;59.60
9820;DHT22;4949;48.482;9.206;2023-07-20T05:59:57;19.50;59.20
9820;DHT22;4949;48.482;9.206;2023-07-20T06:05:02;19.60;59.20
9820;DHT22;4949;48.482;9.206;2023-07-20T06:10:04;19.70;59.20
9820;DHT22;4949;48.482;9.206;2023-07-20T06:15:27;19.80;59.60
9820;DHT22;4949;48.482;9.206;2023-07-20T06:20:34;19.70;60.00
9820;DHT22;4949;48.482;9.206;2023-07-20T06:25:37;19.80;60.30
9820;DHT22;4949;48.482;9.206;2023-07-20T06:30:38;19.90;59.70
9820;DHT22;4949;48.482;9.206;2023-07-20T06:35:41;19.90;59.80
9820;DHT22;4949;48.482;9.206;2023-07-20T06:40:43;20.00;59.40
9820;DHT22;4949;48.482;9.206;2023-07-20T06:45:51;20.20;59.00
9820;DHT22;4949;48.482;9.206;2023-07-20T06:50:53;20.20;58.40
9820;DHT22;4949;48.482;9.206;2023-07-20T06:55:54;20.40;58.00
9820;DHT22;4949;48.482;9.206;2023-07-20T07:00:57;20.10;58.20
9820;DHT22;4949;48.482;9.206;2023-07-20T07:06:00;20.50;59.10
9820;DHT22;4949;48.482;9.206;2023-07-20T07:11:01;20.50;58.20
9820;DHT22;4949;48.482;9.206;2023-07-20T07:16:05;20.70;57.40
9820;DHT22;4949;48.482;9.206;2023-07-20T07:21:06;20.80;56.50
9820;DHT22;4949;48.482;9.206;2023-07-20T07:26:10;20.80;56.70
9820;DHT22;4949;48.482;9.206;2023-07-20T07:31:10;20.80;57.10
9820;DHT22;4949;48.482;9.206;2023-07-20T07:36:11;20.90;57.60
9820;DHT22;4949;48.482;9.206;2023-07-20T07:41:12;21.10;57.00
9820;DHT22;4949;48.482;9.206;2023-07-20T07:46:15;21.20;56.80
9820;DHT22;4949;48.482;9.206;2023-07-20T07:51:16;21.30;56.90
9820;DHT22;4949;48.482;9.206;2023-07-20T07:56:17;21.30;56.50
9820;DHT22;4949;48.482;9.206;2023-07-20T08:01:18;21.50;56.10
9820;DHT22;4949;48.482;9.206;2023-07-20T08:06:22;21.50;56.00
9820;DHT22;4949;48.482;9.206;2023-07-20T08:11:24;21.70;55.90
9820;DHT22;4949;48.482;9.206;2023-07-20T08:16:25;21.70;55.20
9820;DHT22;4949;48.482;9.206;2023-07-20T08:21:25;21.80;54.70
9820;DHT22;4949;48.482;9.206;2023-07-20T08:26:26;22.00;54.60
9820;DHT22;4949;48.482;9.206;2023-07-20T08:31:27;22.10;53.90
9820;DHT22;4949;48.482;9.206;2023-07-20T08:36:30;22.20;53.10
9820;DHT22;4949;48.482;9.206;2023-07-20T08:41:36;22.30;52.30
9820;DHT22;4949;48.482;9.206;2023-07-20T08:46:38;22.20;52.10
9820;DHT22;4949;48.482;9.206;2023-07-20T08:51:39;22.10;53.20
9820;DHT22;4949;48.482;9.206;2023-07-20T08:56:41;22.20;53.90
9820;DHT22;4949;48.482;9.206;2023-07-20T09:01:48;22.30;53.60
9820;DHT22;4949;48.482;9.206;2023-07-20T09:06:50;22.40;53.30
9820;DHT22;4949;48.482;9.206;2023-07-20T09:11:53;22.30;53.20
9820;DHT22;4949;48.482;9.206;2023-07-20T09:16:55;22.50;52.70
9820;DHT22;4949;48.482;9.206;2023-07-20T09:21:56;22.80;52.40
9820;DHT22;4949;48.482;9.206;2023-07-20T09:26:57;22.80;50.90
9820;DHT22;4949;48.482;9.206;2023-07-20T09:32:03;22.90;50.40
9820;DHT22;4949;48.482;9.206;2023-07-20T09:37:07;22.70;49.50
9820;DHT22;4949;48.482;9.206;2023-07-20T09:42:07;22.70;48.90
9820;DHT22;4949;48.482;9.206;2023-07-20T09:47:08;22.70;49.10
9820;DHT22;4949;48.482;9.206;2023-07-20T09:52:10;22.90;49.10
9820;DHT22;4949;48.482;9.206;2023-07-20T09:57:11;22.80;47.80
9820;DHT22;4949;48.482;9.206;2023-07-20T10:02:27;22.90;47.60
9820;DHT22;4949;48.482;9.206;2023-07-20T10:07:35;22.80;46.90
9820;DHT22;4949;48.482;9.206;2023-07-20T10:12:39;22.80;46.50
9820;DHT22;4949;48.482;9.206;2023-07-20T10:18:02;23.00;47.70
9820;DHT22;4949;48.482;9.206;2023-07-20T10:23:05;23.10;45.90
9820;DHT22;4949;48.482;9.206;2023-07-20T10:28:09;22.90;46.80
9820;DHT22;4949;48.482;9.206;2023-07-20T10:33:11;23.00;47.00
9820;DHT22;4949;48.482;9.206;2023-07-20T10:38:11;23.30;46.20
9820;DHT22;4949;48.482;9.206;2023-07-20T10:43:19;23.50;45.30
9820;DHT22;4949;48.482;9.206;2023-07-20T10:48:24;23.60;44.40
9820;DHT22;4949;48.482;9.206;2023-07-20T10:53:29;23.50;43.50
9820;DHT22;4949;48.482;9.206;2023-07-20T10:58:30;23.60;42.30
9820;DHT22;4949;48.482;9.206;2023-07-20T11:03:36;23.70;42.40
9820;DHT22;4949;48.482;9.206;2023-07-20T11:08:42;23.80;42.70
9820;DHT22;4949;48.482;9.206;2023-07-20T11:19:03;24.10;41.90
9820;DHT22;4949;48.482;9.206;2023-07-20T11:24:16;24.10;42.30
9820;DHT22;4949;48.482;9.206;2023-07-20T11:29:18;24.20;41.80
9820;DHT22;4949;48.482;9.206;2023-07-20T11:34:23;24.50;41.00
9820;DHT22;4949;48.482;9.206;2023-07-20T11:39:24;24.70;41.00
9820;DHT22;4949;48.482;9.206;2023-07-20T11:44:29;24.80;40.60
9820;DHT22;4949;48.482;9.206;2023-07-20T11:49:30;25.00;40.50
9820;DHT22;4949;48.482;9.206;2023-07-20T11:54:42;24.90;39.80
9820;DHT22;4949;48.482;9.206;2023-07-20T12:00:00;24.80;39.40
9820;DHT22;4949;48.482;9.206;2023-07-20T12:05:11;25.00;40.00
9820;DHT22;4949;48.482;9.206;2023-07-20T12:10:15;25.30;40.30
9820;DHT22;4949;48.482;9.206;2023-07-20T12:15:17;25.60;39.10
9820;DHT22;4949;48.482;9.206;2023-07-20T12:20:37;26.00;37.70
9820;DHT22;4949;48.482;9.206;2023-07-20T12:25:49;26.20;36.90
9820;DHT22;4949;48.482;9.206;2023-07-20T12:30:53;26.40;36.40
9820;DHT22;4949;48.482;9.206;2023-07-20T12:35:57;26.70;35.70
9820;DHT22;4949;48.482;9.206;2023-07-20T12:41:01;26.50;35.50
9820;DHT22;4949;48.482;9.206;2023-07-20T12:46:02;26.70;36.20
9820;DHT22;4949;48.482;9.206;2023-07-20T12:51:09;26.50;36.10
9820;DHT22;4949;48.482;9.206;2023-07-20T12:56:10;26.50;35.80
9820;DHT22;4949;48.482;9.206;2023-07-20T13:01:13;26.50;35.50
9820;DHT22;4949;48.482;9.206;2023-07-20T13:06:14;27.00;36.40
9820;DHT22;4949;48.482;9.206;2023-07-20T13:11:17;27.50;35.30
9820;DHT22;4949;48.482;9.206;2023-07-20T13:16:22;28.00;34.70
9820;DHT22;4949;48.482;9.206;2023-07-20T13:21:23;27.70;34.20
9820;DHT22;4949;48.482;9.206;2023-07-20T13:26:25;27.50;34.10
9820;DHT22;4949;48.482;9.206;2023-07-20T13:31:28;28.00;34.20
9820;DHT22;4949;48.482;9.206;2023-07-20T13:36:31;28.00;33.60
9820;DHT22;4949;48.482;9.206;2023-07-20T13:41:32;27.90;33.10
9820;DHT22;4949;48.482;9.206;2023-07-20T13:46:33;28.20;32.90
9820;DHT22;4949;48.482;9.206;2023-07-20T13:51:35;28.30;32.50
9820;DHT22;4949;48.482;9.206;2023-07-20T13:56:36;28.40;32.50
9820;DHT22;4949;48.482;9.206;2023-07-20T14:01:36;28.80;33.00
9820;DHT22;4949;48.482;9.206;2023-07-20T14:06:37;28.80;31.50
9820;DHT22;4949;48.482;9.206;2023-07-20T14:11:38;28.70;31.80
9820;DHT22;4949;48.482;9.206;2023-07-20T14:16:39;28.80;30.80
9820;DHT22;4949;48.482;9.206;2023-07-20T14:21:42;29.00;31.30
9820;DHT22;4949;48.482;9.206;2023-07-20T14:26:42;29.00;30.40
9820;DHT22;4949;48.482;9.206;2023-07-20T14:31:43;29.50;29.80
9820;DHT22;4949;48.482;9.206;2023-07-20T14:36:45;29.40;30.00
9820;DHT22;4949;48.482;9.206;2023-07-20T14:41:46;29.30;29.80
9820;DHT22;4949;48.482;9.206;2023-07-20T14:46:49;29.10;30.00
9820;DHT22;4949;48.482;9.206;2023-07-20T14:51:49;29.40;29.40
9820;DHT22;4949;48.482;9.206;2023-07-20T14:56:51;29.40;30.10
9820;DHT22;4949;48.482;9.206;2023-07-20T15:01:55;29.50;29.50
9820;DHT22;4949;48.482;9.206;2023-07-20T15:06:56;29.90;29.30
9820;DHT22;4949;48.482;9.206;2023-07-20T15:11:57;30.20;30.00
9820;DHT22;4949;48.482;9.206;2023-07-20T15:17:00;30.40;28.70
9820;DHT22;4949;48.482;9.206;2023-07-20T15:22:04;30.50;29.20
9820;DHT22;4949;48.482;9.206;2023-07-20T15:27:06;30.50;29.60
9820;DHT22;4949;48.482;9.206;2023-07-20T15:32:08;30.70;29.00
9820;DHT22;4949;48.482;9.206;2023-07-20T15:37:11;30.90;28.90
9820;DHT22;4949;48.482;9.206;2023-07-20T15:42:17;31.20;28.70
9820;DHT22;4949;48.482;9.206;2023-07-20T15:47:18;31.50;28.60
9820;DHT22;4949;48.482;9.206;2023-07-20T15:52:19;31.60;28.00
9820;DHT22;4949;48.482;9.206;2023-07-20T15:57:19;31.40;28.00
9820;DHT22;4949;48.482;9.206;2023-07-20T16:02:20;31.10;28.90
9820;DHT22;4949;48.482;9.206;2023-07-20T16:07:21;30.70;28.30
9820;DHT22;4949;48.482;9.206;2023-07-20T16:12:22;30.70;28.60
9820;DHT22;4949;48.482;9.206;2023-07-20T16:17:26;30.70;28.90
9820;DHT22;4949;48.482;9.206;2023-07-20T16:22:29;30.80;29.00
9820;DHT22;4949;48.482;9.206;2023-07-20T16:27:32;30.60;29.20
9820;DHT22;4949;48.482;9.206;2023-07-20T16:32:33;30.60;29.10
9820;DHT22;4949;48.482;9.206;2023-07-20T16:37:34;30.30;29.60
9820;DHT22;4949;48.482;9.206;2023-07-20T16:42:35;30.10;30.00
9820;DHT22;4949;48.482;9.206;2023-07-20T16:47:38;30.10;29.90
9820;DHT22;4949;48.482;9.206;2023-07-20T16:52:39;30.20;30.00
9820;DHT22;4949;48.482;9.206;2023-07-20T16:57:40;30.30;30.00
9820;DHT22;4949;48.482;9.206;2023-07-20T17:02:43;30.40;29.80
9820;DHT22;4949;48.482;9.206;2023-07-20T17:07:48;30.30;30.00
9820;DHT22;4949;48.482;9.206;2023-07-20T17:12:51;30.40;30.20
9820;DHT22;4949;48.482;9.206;2023-07-20T17:17:54;30.20;30.20
9820;DHT22;4949;48.482;9.206;2023-07-20T17:22:57;30.10;30.80
9820;DHT22;4949;48.482;9.206;2023-07-20T17:28:03;30.00;30.70
9820;DHT22;4949;48.482;9.206;2023-07-20T17:33:07;29.80;31.20
9820;DHT22;4949;48.482;9.206;2023-07-20T17:38:09;29.60;31.50
9820;DHT22;4949;48.482;9.206;2023-07-20T17:43:09;29.50;31.50
9820;DHT22;4949;48.482;9.206;2023-07-20T17:48:10;29.30;32.00
9820;DHT22;4949;48.482;9.206;2023-07-20T17:53:11;29.00;32.10
9820;DHT22;4949;48.482;9.206;2023-07-20T17:58:13;28.80;32.70
9820;DHT22;4949;48.482;9.206;2023-07-20T18:03:14;28.50;33.10
9820;DHT22;4949;48.482;9.206;2023-07-20T18:08:15;28.50;33.60
9820;DHT22;4949;48.482;9.206;2023-07-20T18:13:16;28.20;33.80
9820;DHT22;4949;48.482;9.206;2023-07-20T18:18:16;28.00;33.90
9820;DHT22;4949;48.482;9.206;2023-07-20T18:23:19;27.90;34.40
9820;DHT22;4949;48.482;9.206;2023-07-20T18:28:20;27.80;34.40
9820;DHT22;4949;48.482;9.206;2023-07-20T18:33:21;27.70;34.30
9820;DHT22;4949;48.482;9.206;2023-07-20T18:38:23;27.40;34.30
9820;DHT22;4949;48.482;9.206;2023-07-20T18:43:24;27.30;33.80
9820;DHT22;4949;48.482;9.206;2023-07-20T18:48:25;27.10;34.70
9820;DHT22;4949;48.482;9.206;2023-07-20T18:53:26;27.00;35.00
9820;DHT22;4949;48.482;9.206;2023-07-20T18:58:29;26.80;35.50
9820;DHT22;4949;48.482;9.206;2023-07-20T19:03:32;26.70;35.60
9820;DHT22;4949;48.482;9.206;2023-07-20T19:08:35;26.40;35.70
9820;DHT22;4949;48.482;9.206;2023-07-20T19:13:36;26.40;35.80
9820;DHT22;4949;48.482;9.206;2023-07-20T19:18:37;26.30;35.90
9820;DHT22;4949;48.482;9.206;2023-07-20T19:23:38;26.00;36.00
9820;DHT22;4949;48.482;9.206;2023-07-20T19:28:41;25.80;36.50
9820;DHT22;4949;48.482;9.206;2023-07-20T19:33:42;25.40;37.40
9820;DHT22;4949;48.482;9.206;2023-07-20T19:38:46;25.20;38.30
9820;DHT22;4949;48.482;9.206;2023-07-20T19:43:47;24.90;39.20
9820;DHT22;4949;48.482;9.206;2023-07-20T19:48:48;24.60;41.00
9820;DHT22;4949;48.482;9.206;2023-07-20T19:53:51;24.30;41.90
9820;DHT22;4949;48.482;9.206;2023-07-20T19:58:52;24.20;42.80
9820;DHT22;4949;48.482;9.206;2023-07-20T20:03:53;24.00;43.00
9820;DHT22;4949;48.482;9.206;2023-07-20T20:08:55;23.90;43.80
9820;DHT22;4949;48.482;9.206;2023-07-20T20:13:55;23.70;44.50
9820;DHT22;4949;48.482;9.206;2023-07-20T20:18:56;23.50;44.10
9820;DHT22;4949;48.482;9.206;2023-07-20T20:24:00;23.40;44.80
9820;DHT22;4949;48.482;9.206;2023-07-20T20:29:01;23.30;45.20
9820;DHT22;4949;48.482;9.206;2023-07-20T20:34:04;23.10;45.50
9820;DHT22;4949;48.482;9.206;2023-07-20T20:39:06;23.00;46.20
9820;DHT22;4949;48.482;9.206;2023-07-20T20:44:08;22.80;45.90
9820;DHT22;4949;48.482;9.206;2023-07-20T20:49:52;22.70;46.70
9820;DHT22;4949;48.482;9.206;2023-07-20T20:55:00;22.50;47.00
9820;DHT22;4949;48.482;9.206;2023-07-20T21:00:03;22.50;47.90
9820;DHT22;4949;48.482;9.206;2023-07-20T21:05:09;22.30;48.20
9820;DHT22;4949;48.482;9.206;2023-07-20T21:10:12;22.20;48.20
9820;DHT22;4949;48.482;9.206;2023-07-20T21:15:13;22.10;47.70
9820;DHT22;4949;48.482;9.206;2023-07-20T21:20:14;21.90;48.50
9820;DHT22;4949;48.482;9.206;2023-07-20T21:25:15;21.80;48.50
9820;DHT22;4949;48.482;9.206;2023-07-20T21:30:16;21.70;48.50
9820;DHT22;4949;48.482;9.206;2023-07-20T21:35:19;21.60;49.70
9820;DHT22;4949;48.482;9.206;2023-07-20T21:40:20;21.50;50.20
9820;DHT22;4949;48.482;9.206;2023-07-20T21:45:23;21.40;50.20
9820;DHT22;4949;48.482;9.206;2023-07-20T21:50:26;21.20;50.80
9820;DHT22;4949;48.482;9.206;2023-07-20T21:55:27;21.10;51.60
9820;DHT22;4949;48.482;9.206;2023-07-20T22:00:28;21.00;51.80
9820;DHT22;4949;48.482;9.206;2023-07-20T22:05:29;21.00;52.10
9820;DHT22;4949;48.482;9.206;2023-07-20T22:10:33;20.90;52.10
9820;DHT22;4949;48.482;9.206;2023-07-20T22:15:34;20.80;52.00
9820;DHT22;4949;48.482;9.206;2023-07-20T22:20:35;20.70;52.30
9820;DHT22;4949;48.482;9.206;2023-07-20T22:25:36;20.60;52.20
9820;DHT22;4949;48.482;9.206;2023-07-20T22:30:36;20.50;52.70
9820;DHT22;4949;48.482;9.206;2023-07-20T22:35:39;20.40;52.70
9820;DHT22;4949;48.482;9.206;2023-07-20T22:40:40;20.30;54.10
9820;DHT22;4949;48.482;9.206;2023-07-20T22:45:41;20.20;53.30
9820;DHT22;4949;48.482;9.206;2023-07-20T22:50:41;20.10;52.80
9820;DHT22;4949;48.482;9.206;2023-07-20T22:55:45;20.00;53.70
9820;DHT22;4949;48.482;9.206;2023-07-20T23:00:47;19.90;53.90
9820;DHT22;4949;48.482;9.206;2023-07-20T23:05:47;19.80;53.60
9820;DHT22;4949;48.482;9.206;2023-07-20T23:10:50;19.80;53.50
9820;DHT22;4949;48.482;9.206;2023-07-20T23:15:51;19.80;54.00
9820;DHT22;4949;48.482;9.206;2023-07-20T23:20:52;19.70;54.10
9820;DHT22;4949;48.482;9.206;2023-07-20T23:26:00;19.90;53.60
9820;DHT22;4949;48.482;9.206;2023-07-20T23:31:02;19.90;53.00
9820;DHT22;4949;48.482;9.206;2023-07-20T23:36:03;19.80;54.20
9820;DHT22;4949;48.482;9.206;2023-07-20T23:41:08;19.70;53.40
9820;DHT22;4949;48.482;9.206;2023-07-20T23:46:11;19.90;52.20
9820;DHT22;4949;48.482;9.206;2023-07-20T23:51:25;19.90;51.60
9820;DHT22;4949;48.482;9.206;2023-07-20T23:56:26;19.80;52.20
